Time;durP1;ratioP1;P1;durP2;ratioP2;P2;SDS_P1;SDS_P2;PMS_P1;PMS_P2;Temp;Humidity;BMP_temperature;BMP_pressure;BME280_temperature;BME280_humidity;BME280_pressure;Samples;Min_cycle;Max_cycle;Signal;HPM_P1;HPM_P2
2022/09/05 00:02:02;;;;;;;15.55;13.68;;;;;;;15.78;100.00;164692.88;4980127;28;20511;-72
2022/09/05 00:05:04;;;;;;;15.13;13.25;;;;;;;15.77;100.00;164688.84;4992968;28;20487;-72
2022/09/05 00:07:40;;;;;;;13.38;12.18;;;;;;;15.75;100.00;164684.75;4982581;28;20049;-71
2022/09/05 00:10:31;;;;;;;18.58;11.80;;;;;;;15.74;100.00;164682.06;4973723;28;20031;-72
2022/09/05 00:13:00;;;;;;;21.23;13.73;;;;;;;15.75;100.00;164683.41;4989858;28;20117;-72
2022/09/05 00:15:35;;;;;;;;;;;;;;;15.74;100.00;164682.06;4991417;28;20034;-71
2022/09/05 00:18:28;;;;;;;23.50;14.15;;;;;;;15.72;100.00;164676.66;4991823;28;19918;-72
2022/09/05 00:21:22;;;;;;;17.85;14.30;;;;;;;15.67;100.00;164663.13;4990401;28;20034;-71
2022/09/05 00:24:31;;;;;;;16.30;12.88;;;;;;;15.60;100.00;164644.16;4990673;28;20490;-71
2022/09/05 00:27:12;;;;;;;15.15;13.65;;;;;;;15.60;100.00;164644.16;4990819;28;20046;-72
2022/09/05 00:29:57;;;;;;;18.45;13.27;;;;;;;15.58;100.00;164638.75;4990184;28;20497;-72
2022/09/05 00:32:35;;;;;;;15.38;13.80;;;;;;;15.55;100.00;164633.31;4984106;28;20496;-72
2022/09/05 00:35:21;;;;;;;16.73;14.20;;;;;;;15.54;100.00;164630.59;4988231;28;20510;-72
2022/09/05 00:37:49;;;;;;;21.17;14.57;;;;;;;15.49;100.00;164617.06;4991555;28;20049;-72
2022/09/05 00:40:18;;;;;;;15.00;12.15;;;;;;;15.47;100.00;164610.31;4990866;28;20501;-72
2022/09/05 00:42:48;;;;;;;14.63;12.35;;;;;;;15.44;100.00;164603.56;4991829;28;20034;-72
2022/09/05 00:45:24;;;;;;;18.17;12.43;;;;;;;15.44;100.00;164603.56;4990510;28;20395;-72
2022/09/05 00:48:30;;;;;;;15.98;14.23;;;;;;;15.44;100.00;164603.56;4992183;28;20027;-72
2022/09/05 00:51:20;;;;;;;13.93;12.63;;;;;;;15.44;100.00;164602.16;4989556;28;20111;-73
2022/09/05 00:54:01;;;;;;;16.40;14.82;;;;;;;15.40;100.00;164592.69;4990618;28;20034;-71
2022/09/05 00:56:26;;;;;;;17.15;14.68;;;;;;;15.39;100.00;164591.34;4991804;28;20529;-71
2022/09/05 00:59:29;;;;;;;15.45;13.95;;;;;;;15.34;100.00;164576.47;4989645;28;20105;-71
2022/09/05 01:02:10;;;;;;;16.90;14.63;;;;;;;15.32;100.00;164571.03;4989921;28;20026;-72
2022/09/05 01:04:47;;;;;;;15.00;13.63;;;;;;;15.30;100.00;164565.66;4990149;28;20133;-71
2022/09/05 01:07:57;;;;;;;13.38;12.27;;;;;;;15.25;100.00;164552.09;4991306;28;20093;-71
2022/09/05 01:10:41;;;;;;;15.20;13.60;;;;;;;15.20;100.00;164539.88;4990431;28;20053;-70
2022/09/05 01:13:21;;;;;;;14.68;13.25;;;;;;;15.14;100.00;164525.03;4991598;28;20058;-70
2022/09/05 01:16:11;;;;;;;25.15;14.95;;;;;;;15.12;100.00;164519.59;4989788;28;20501;-69
2022/09/05 01:18:52;;;;;;;13.70;12.30;;;;;;;15.13;100.00;164522.31;4989534;28;20105;-68
2022/09/05 01:21:50;;;;;;;15.77;12.80;;;;;;;15.09;100.00;164511.47;4981790;28;20019;-70
2022/09/05 01:24:52;;;;;;;13.27;12.00;;;;;;;15.05;100.00;164502.00;4989999;28;20046;-70
2022/09/05 01:27:32;;;;;;;17.40;12.25;;;;;;;15.03;100.00;164495.22;4991330;28;20029;-68
2022/09/05 01:30:02;;;;;;;18.42;13.07;;;;;;;15.01;100.00;164489.81;4989553;28;20077;-68
2022/09/05 01:32:33;;;;;;;14.48;13.07;;;;;;;14.99;100.00;164484.44;4990834;28;20092;-68
2022/09/05 01:35:24;;;;;;;13.68;12.50;;;;;;;14.95;100.00;164473.56;4989810;28;20039;-69
2022/09/05 01:38:05;;;;;;;14.15;12.68;;;;;;;14.92;100.00;164466.81;4991128;28;20038;-68
2022/09/05 01:40:44;;;;;;;14.43;12.93;;;;;;;14.90;100.00;164461.38;4982762;28;20414;-68
2022/09/05 01:43:31;;;;;;;15.18;13.63;;;;;;;14.83;100.00;164443.84;4990908;28;20121;-68
2022/09/05 01:46:23;;;;;;;15.82;13.25;;;;;;;14.79;100.00;164432.97;4989956;28;20038;-68
2022/09/05 01:48:53;;;;;;;14.52;13.02;;;;;;;14.75;100.00;164422.16;4989659;28;20089;-68
2022/09/05 01:52:05;;;;;;;14.32;12.10;;;;;;;14.73;100.00;164416.75;4991159;28;20026;-68
2022/09/05 01:54:44;;;;;;;16.45;13.85;;;;;;;14.70;100.00;164408.66;4989852;28;20054;-73
2022/09/05 01:57:49;;;;;;;17.13;13.13;;;;;;;14.67;100.00;164400.50;4991357;28;20053;-72
2022/09/05 02:00:34;;;;;;;14.02;12.73;;;;;;;14.63;100.00;164389.66;4980184;28;20049;-70
2022/09/05 02:03:27;;;;;;;15.93;12.45;;;;;;;14.62;100.00;164386.94;4989969;28;20584;-69
2022/09/05 02:06:22;;;;;;;15.32;13.75;;;;;;;14.57;100.00;164376.09;4971813;28;20402;-70
2022/09/05 02:09:09;;;;;;;16.40;14.80;;;;;;;14.54;100.00;164366.63;4989091;28;20018;-71
2022/09/05 02:11:44;;;;;;;15.85;14.13;;;;;;;14.50;100.00;164357.16;4990780;28;20034;-71
2022/09/05 02:14:29;;;;;;;17.58;13.98;;;;;;;14.48;100.00;164351.78;4989767;28;20122;-70
2022/09/05 02:17:05;;;;;;;15.63;14.23;;;;;;;14.40;100.00;164330.13;4990984;28;20096;-70
2022/09/05 02:19:37;;;;;;;15.73;14.32;;;;;;;14.40;100.00;164330.13;4988704;28;20070;-73
2022/09/05 02:22:10;;;;;;;21.52;13.70;;;;;;;14.37;100.00;164322.00;4990640;28;20544;-73
2022/09/05 02:24:41;;;;;;;15.90;14.13;;;;;;;14.30;100.00;164303.06;4989716;28;20069;-73
2022/09/05 02:27:15;;;;;;;15.35;13.80;;;;;;;14.28;100.00;164300.34;4990757;28;20030;-73
2022/09/05 02:29:45;;;;;;;16.98;15.38;;;;;;;14.27;100.00;164297.63;4989292;28;20050;-73
2022/09/05 02:32:36;;;;;;;16.45;14.73;;;;;;;14.24;100.00;164288.16;4991304;28;20125;-73
2022/09/05 02:35:19;;;;;;;15.32;14.05;;;;;;;14.23;100.00;164286.81;4989088;28;20200;-72
2022/09/05 02:37:54;;;;;;;15.27;13.73;;;;;;;14.21;100.00;164280.06;4990383;28;20549;-69
2022/09/05 02:40:35;;;;;;;14.40;13.23;;;;;;;14.22;100.00;164282.78;4989087;28;20053;-68
2022/09/05 02:43:00;;;;;;;16.02;13.50;;;;;;;14.18;100.00;164273.31;4992602;28;20034;-72
2022/09/05 02:45:34;;;;;;;16.60;15.00;;;;;;;14.14;100.00;164261.13;4992841;28;20137;-72
2022/09/05 02:48:14;;;;;;;17.33;15.52;;;;;;;14.12;100.00;164258.41;4994481;28;20517;-72
2022/09/05 02:50:53;;;;;;;17.02;15.15;;;;;;;14.12;100.00;164257.03;4992478;28;20623;-71
2022/09/05 02:53:21;;;;;;;15.73;14.23;;;;;;;14.06;100.00;164240.81;4994269;28;20026;-73
2022/09/05 02:56:15;;;;;;;15.15;13.85;;;;;;;14.09;100.00;164248.94;4992438;28;20129;-73
2022/09/05 02:59:09;;;;;;;16.88;15.10;;;;;;;14.02;100.00;164230.03;4979702;28;20041;-72
2022/09/05 03:01:55;;;;;;;16.95;15.32;;;;;;;14.04;100.00;164235.38;4992616;28;20502;-73
2022/09/05 03:04:43;;;;;;;15.13;13.65;;;;;;;14.04;100.00;164235.38;4992525;28;20697;-73
2022/09/05 03:07:45;;;;;;;15.05;13.65;;;;;;;14.03;100.00;164234.06;4993525;28;20494;-73
2022/09/05 03:10:49;;;;;;;17.55;14.63;;;;;;;14.03;100.00;164232.72;4992721;28;20073;-73
2022/09/05 03:13:45;;;;;;;16.05;14.38;;;;;;;14.01;100.00;164227.31;4943783;28;20100;-72
2022/09/05 03:16:35;;;;;;;15.82;14.38;;;;;;;13.99;100.00;164221.88;4973192;28;20490;-72
2022/09/05 03:19:22;;;;;;;16.55;14.85;;;;;;;13.98;100.00;164219.16;4976007;28;20030;-72
2022/09/05 03:22:15;;;;;;;16.00;14.27;;;;;;;13.98;100.00;164219.16;4993478;28;20045;-71
2022/09/05 03:25:13;;;;;;;18.75;17.02;;;;;;;13.99;100.00;164221.88;4992146;28;20116;-71
2022/09/05 03:28:02;;;;;;;24.00;16.05;;;;;;;13.93;100.00;164208.38;4992797;28;20058;-72
2022/09/05 03:30:59;;;;;;;17.55;15.80;;;;;;;13.91;100.00;164202.94;4992039;28;20069;-67
2022/09/05 03:33:45;;;;;;;19.00;16.27;;;;;;;13.88;100.00;164194.84;4993375;28;20034;-70
2022/09/05 03:36:47;;;;;;;16.33;14.77;;;;;;;13.83;100.00;164179.97;4972410;28;20058;-69
2022/09/05 03:39:53;;;;;;;18.33;16.38;;;;;;;13.80;100.00;164173.22;4977306;28;20061;-69
2022/09/05 03:42:40;;;;;;;19.23;17.52;;;;;;;13.75;100.00;164161.03;4992942;28;20034;-69
2022/09/05 03:45:41;;;;;;;19.38;17.60;;;;;;;13.72;100.00;164152.91;4992077;28;20129;-73
2022/09/05 03:48:33;;;;;;;18.70;16.92;;;;;;;13.70;100.00;164146.16;4993525;28;20121;-73
2022/09/05 03:51:27;;;;;;;17.08;15.43;;;;;;;13.63;100.00;164129.94;4991528;28;20413;-74
2022/09/05 03:54:14;;;;;;;19.45;17.35;;;;;;;13.66;100.00;164135.34;4991256;28;20038;-75
2022/09/05 03:56:50;;;;;;;18.23;16.40;;;;;;;13.64;100.00;164131.25;4991971;28;20124;-75
2022/09/05 03:59:45;;;;;;;18.38;16.45;;;;;;;13.58;100.00;164116.41;4991500;28;20042;-75
2022/09/05 04:02:14;;;;;;;19.10;17.20;;;;;;;13.54;100.00;164105.56;4992716;28;20034;-74
2022/09/05 04:05:05;;;;;;;19.60;17.75;;;;;;;13.51;100.00;164096.13;4990381;28;20540;-73
2022/09/05 04:08:26;;;;;;;18.77;16.98;;;;;;;13.47;100.00;164086.66;4985912;28;20053;-73
2022/09/05 04:11:00;;;;;;;21.60;19.60;;;;;;;13.46;100.00;164083.94;4912316;29;20040;-70
2022/09/05 04:13:36;;;;;;;21.58;19.45;;;;;;;13.44;100.00;164079.91;4971905;28;20046;-71
2022/09/05 04:16:16;;;;;;;19.52;17.70;;;;;;;13.44;100.00;164078.56;4989879;28;20070;-70
2022/09/05 04:18:48;;;;;;;18.65;16.42;;;;;;;13.43;100.00;164075.84;4990094;28;20117;-70
2022/09/05 04:21:43;;;;;;;19.10;17.10;;;;;;;13.41;100.00;164070.44;4992515;28;20026;-70
2022/09/05 04:24:45;;;;;;;20.35;18.20;;;;;;;13.38;100.00;164063.69;4990980;28;20112;-67
2022/09/05 04:27:30;;;;;;;21.42;19.17;;;;;;;13.36;100.00;164056.88;4992098;28;20026;-67
2022/09/05 04:30:29;;;;;;;22.15;19.45;;;;;;;13.35;100.00;164054.16;4990441;28;20070;-62
2022/09/05 04:33:03;;;;;;;21.30;19.30;;;;;;;13.35;100.00;164054.16;4991829;28;20456;-70
2022/09/05 04:35:34;;;;;;;18.23;16.55;;;;;;;13.32;100.00;164048.75;4991331;28;20042;-70
2022/09/05 04:38:12;;;;;;;20.15;18.25;;;;;;;13.29;100.00;164040.59;4992452;28;20034;-69
2022/09/05 04:40:40;;;;;;;;;;;;;;;13.30;100.00;164043.31;4989727;28;20050;-69
2022/09/05 04:43:32;;;;;;;21.02;18.92;;;;;;;13.30;100.00;164043.31;4992066;28;19921;-69
2022/09/05 04:46:16;;;;;;;20.42;18.52;;;;;;;13.30;100.00;164042.00;4965424;28;20045;-69
2022/09/05 04:48:50;;;;;;;19.25;17.55;;;;;;;13.23;100.00;164024.38;4971736;28;20401;-68
2022/09/05 04:51:30;;;;;;;21.40;19.38;;;;;;;13.22;100.00;164021.69;4992598;28;20049;-69
2022/09/05 04:54:12;;;;;;;19.48;17.50;;;;;;;13.19;100.00;164013.59;4990839;28;20466;-69
2022/09/05 04:56:43;;;;;;;19.98;18.17;;;;;;;13.16;100.00;164005.47;4991582;28;20073;-69
2022/09/05 04:59:27;;;;;;;20.10;18.05;;;;;;;13.15;100.00;164002.75;4990846;28;20038;-67
2022/09/05 05:01:59;;;;;;;22.38;18.40;;;;;;;13.15;100.00;164004.13;4992067;28;20029;-67
2022/09/05 05:04:26;;;;;;;22.67;19.05;;;;;;;13.11;100.00;163991.97;4990346;28;20039;-67
2022/09/05 05:07:05;;;;;;;26.13;19.02;;;;;;;13.15;100.00;164004.13;4991822;28;20053;-67
2022/09/05 05:09:39;;;;;;;21.45;19.35;;;;;;;13.17;100.00;164008.19;4990606;28;20038;-67
2022/09/05 05:12:18;;;;;;;23.52;20.20;;;;;;;13.15;100.00;164002.75;4991718;28;20080;-67
2022/09/05 05:15:10;;;;;;;28.02;19.75;;;;;;;13.23;100.00;164023.06;4990521;28;20035;-66
2022/09/05 05:17:50;;;;;;;23.98;19.60;;;;;;;13.26;100.00;164032.53;4991576;28;20026;-66
2022/09/05 05:20:37;;;;;;;21.65;19.20;;;;;;;13.26;100.00;164032.53;4990398;28;20498;-66
2022/09/05 05:23:08;;;;;;;23.95;18.10;;;;;;;13.35;100.00;164054.16;4992189;28;20041;-66
2022/09/05 05:25:47;;;;;;;25.80;19.77;;;;;;;13.38;100.00;164063.69;4989830;28;20046;-66
2022/09/05 05:28:18;;;;;;;22.50;20.15;;;;;;;13.41;100.00;164070.44;4991798;28;20637;-66
2022/09/05 05:30:43;;;;;;;20.17;18.15;;;;;;;13.41;100.00;164070.44;4989950;28;20072;-67
2022/09/05 05:33:25;;;;;;;21.13;19.02;;;;;;;13.39;100.00;164065.00;4991479;28;20485;-70
2022/09/05 05:35:54;;;;;;;22.98;19.25;;;;;;;13.35;100.00;164055.50;4990153;28;20046;-70
2022/09/05 05:38:27;;;;;;;25.45;20.50;;;;;;;13.39;100.00;164065.00;4991521;28;20109;-70
2022/09/05 05:41:04;;;;;;;22.45;20.08;;;;;;;13.45;100.00;164081.22;4989701;28;20038;-70
2022/09/05 05:43:38;;;;;;;23.05;20.98;;;;;;;13.49;100.00;164093.41;4991882;28;20026;-70
2022/09/05 05:46:04;;;;;;;23.52;21.15;;;;;;;13.57;100.00;164113.72;4970887;28;20074;-71
2022/09/05 05:48:36;;;;;;;45.97;19.52;;;;;;;13.62;100.00;164125.88;4972024;28;20050;-70
2022/09/05 05:51:36;;;;;;;63.28;23.48;;;;;;;13.68;100.00;164140.72;4990019;28;20049;-70
2022/09/05 05:54:18;;;;;;;43.75;19.35;;;;;;;13.74;100.00;164158.31;4990343;28;20404;-67
2022/09/05 05:57:15;;;;;;;39.33;19.20;;;;;;;13.80;100.00;164173.22;4990999;28;20030;-68
2022/09/05 05:59:52;;;;;;;97.25;23.42;;;;;;;13.87;100.00;164192.16;4989901;28;20038;-67
2022/09/05 06:02:54;;;;;;;68.75;24.52;;;;;;;13.94;100.00;164211.09;4991215;28;20106;-65
2022/09/05 06:05:38;;;;;;;82.97;22.17;;;;;;;14.02;100.00;164230.03;4990114;28;20046;-64
2022/09/05 06:08:25;;;;;;;59.85;22.10;;;;;;;14.08;100.00;164246.25;4991442;28;20061;-65
2022/09/05 06:11:13;;;;;;;49.70;21.15;;;;;;;14.16;100.00;164267.88;4989548;28;20377;-64
2022/09/05 06:13:57;;;;;;;57.72;23.70;;;;;;;14.31;100.00;164305.75;4990199;28;20026;-64
2022/09/05 06:16:53;;;;;;;38.00;18.50;;;;;;;14.49;100.00;164354.44;4991559;28;20149;-64
2022/09/05 06:20:00;;;;;;;49.88;18.65;;;;;;;14.74;100.00;164419.47;4993650;28;20465;-64
2022/09/05 06:23:05;;;;;;;29.02;19.00;;;;;;;14.98;100.00;164481.72;4965803;28;20518;-64
2022/09/05 06:25:57;;;;;;;20.90;18.67;;;;;;;15.25;100.00;164552.09;4992933;28;20050;-65
2022/09/05 06:28:34;;;;;;;23.40;18.48;;;;;;;15.55;100.00;164631.97;4995149;28;20433;-64
2022/09/05 06:31:13;;;;;;;17.30;15.35;;;;;;;15.77;100.00;164688.84;4993449;28;20062;-64
2022/09/05 06:34:03;;;;;;;21.95;18.63;;;;;;;15.99;100.00;164747.09;4992988;28;20450;-65
2022/09/05 06:36:59;;;;;;;31.98;17.77;;;;;;;16.27;100.00;164821.59;4995170;28;20072;-64
2022/09/05 06:39:43;;;;;;;20.67;18.42;;;;;;;16.51;100.00;164883.91;4993059;28;20034;-64
2022/09/05 06:42:33;;;;;;;18.67;16.15;;;;;;;16.72;100.00;164939.41;4994956;28;20034;-66
2022/09/05 06:45:27;;;;;;;19.73;15.80;;;;;;;16.91;100.00;164988.22;4993036;28;20081;-66
2022/09/05 06:48:02;;;;;;;17.10;15.35;;;;;;;17.19;100.00;165061.41;4993480;28;20030;-66
2022/09/05 06:50:48;;;;;;;17.85;15.95;;;;;;;17.40;100.00;165118.31;4993263;28;20043;-66
2022/09/05 06:53:25;;;;;;;18.30;16.30;;;;;;;17.62;100.00;165175.25;4994569;28;20382;-66
2022/09/05 06:56:18;;;;;;;20.50;14.38;;;;;;;17.87;100.00;165240.31;4992902;28;20391;-66
2022/09/05 06:58:55;;;;;;;19.15;17.27;;;;;;;18.08;100.00;165295.97;4992714;28;20478;-66
2022/09/05 07:01:27;;;;;;;18.70;16.38;;;;;;;18.27;100.00;165346.16;4994283;28;20026;-66
2022/09/05 07:04:14;;;;;;;20.00;14.95;;;;;;;18.46;100.00;165394.94;4992855;28;20041;-63
2022/09/05 07:07:05;;;;;;;26.33;14.70;;;;;;;18.63;100.00;165439.66;4993653;28;20104;-61
2022/09/05 07:09:50;;;;;;;18.45;15.85;;;;;;;18.81;100.00;165487.13;4998981;28;20036;-66
2022/09/05 07:12:27;;;;;;;15.52;13.18;;;;;;;19.02;100.00;165544.16;5013950;28;20026;-66
2022/09/05 07:15:07;;;;;;;27.67;14.98;;;;;;;19.22;100.00;165594.34;5011993;28;20038;-66
2022/09/05 07:17:38;;;;;;;13.38;12.07;;;;;;;19.41;100.00;165645.94;5008210;28;20037;-66
2022/09/05 07:20:33;;;;;;;17.98;12.90;;;;;;;19.72;100.00;165725.97;4992399;28;20069;-63
2022/09/05 07:23:25;;;;;;;20.25;12.68;;;;;;;20.11;100.00;165830.50;4993789;28;20110;-63
2022/09/05 07:25:54;;;;;;;17.58;13.80;;;;;;;20.63;100.00;165964.91;4981164;28;20050;-64
2022/09/05 07:28:20;;;;;;;15.15;12.55;;;;;;;21.16;100.00;166104.78;4993689;28;20034;-63
2022/09/05 07:30:49;;;;;;;16.48;13.60;;;;;;;21.55;100.00;166209.41;4991646;28;20063;-63
2022/09/05 07:33:26;;;;;;;26.13;12.30;;;;;;;21.77;100.00;166266.50;4993974;28;20030;-64
2022/09/05 07:36:00;;;;;;;12.52;10.23;;;;;;;21.99;100.00;166324.88;4991944;28;20042;-64
2022/09/05 07:38:30;;;;;;;15.07;10.85;;;;;;;22.32;100.00;166410.47;4993198;28;20106;-64
2022/09/05 07:41:26;;;;;;;18.73;12.52;;;;;;;23.01;100.00;166592.63;4992239;28;20049;-64
2022/09/05 07:44:01;;;;;;;13.88;11.13;;;;;;;23.71;100.00;166777.59;4991813;28;20080;-64
2022/09/05 07:46:38;;;;;;;16.90;9.48;;;;;;;24.53;100.00;166992.53;4992757;28;20163;-64
2022/09/05 07:49:11;;;;;;;14.45;8.48;;;;;;;25.21;100.00;167172.09;4992006;28;20042;-62
2022/09/05 07:51:43;;;;;;;11.02;9.02;;;;;;;25.71;100.00;167302.84;4993190;28;20418;-62
2022/09/05 07:54:19;;;;;;;11.15;7.90;;;;;;;25.87;100.00;167346.41;4991846;28;20493;-62
2022/09/05 07:56:52;;;;;;;11.68;7.28;;;;;;;25.81;100.00;167330.03;4993282;28;20026;-62
2022/09/05 07:59:19;;;;;;;18.60;8.30;;;;;;;25.60;100.00;167275.59;4992018;28;20042;-62
2022/09/05 08:01:48;;;;;;;12.70;7.25;;;;;;;25.47;100.00;167241.56;4992826;28;20141;-63
2022/09/05 08:04:28;;;;;;;12.30;7.45;;;;;;;25.13;100.00;167150.38;4991803;28;20034;-62
2022/09/05 08:06:57;;;;;;;11.95;7.80;;;;;;;25.18;100.00;167163.97;4993121;28;20023;-63
2022/09/05 08:09:26;;;;;;;8.25;7.45;;;;;;;25.23;100.00;167177.56;4991652;28;20046;-62
2022/09/05 08:11:58;;;;;;;10.38;7.75;;;;;;;25.37;100.00;167214.31;4992770;28;20034;-63
2022/09/05 08:14:42;;;;;;;10.38;6.13;;;;;;;25.49;100.00;167245.69;4991827;28;20129;-62
2022/09/05 08:17:14;;;;;;;14.95;7.28;;;;;;;25.51;100.00;167251.09;4992778;28;20029;-63
2022/09/05 08:20:05;;;;;;;11.00;6.55;;;;;;;25.81;100.00;167330.03;4991194;28;20038;-63
2022/09/05 08:22:41;;;;;;;10.93;6.78;;;;;;;26.10;100.00;167407.69;4992600;28;20037;-63
2022/09/05 08:25:15;;;;;;;8.98;5.82;;;;;;;26.48;100.00;167505.69;4991497;28;20045;-63
2022/09/05 08:28:08;;;;;;;7.80;5.82;;;;;;;26.69;100.00;167561.53;4992434;28;20486;-63
2022/09/05 08:30:43;;;;;;;7.00;5.63;;;;;;;26.90;100.00;167618.78;4982825;28;20054;-63
2022/09/05 08:33:14;;;;;;;7.28;5.45;;;;;;;26.72;100.00;167569.66;5000593;28;20025;-63
2022/09/05 08:35:54;;;;;;;7.03;4.63;;;;;;;26.56;100.00;167528.81;5010524;28;20177;-63
2022/09/05 08:38:21;;;;;;;9.60;4.93;;;;;;;26.32;100.00;167464.84;4995921;28;20038;-63
2022/09/05 08:40:53;;;;;;;12.50;6.13;;;;;;;26.16;100.00;167421.28;4989838;28;20046;-63
2022/09/05 08:43:35;;;;;;;8.25;4.30;;;;;;;25.96;100.00;167369.53;4992230;28;20029;-63
2022/09/05 08:46:33;;;;;;;14.15;4.07;;;;;;;25.76;100.00;167316.44;4990480;28;20169;-63
2022/09/05 08:49:29;;;;;;;3.83;3.17;;;;;;;25.72;100.00;167305.56;4990761;28;20134;-62
2022/09/05 08:52:05;;;;;;;3.80;3.45;;;;;;;25.78;100.00;167321.88;4991838;28;20034;-63
2022/09/05 08:54:45;;;;;;;17.85;4.88;;;;;;;25.84;100.00;167338.22;4991058;28;20042;-63
2022/09/05 08:57:45;;;;;;;10.02;3.90;;;;;;;25.83;100.00;167334.13;4992393;28;20144;-63
2022/09/05 09:00:14;;;;;;;3.92;3.47;;;;;;;25.92;100.00;167360.00;4990414;28;20042;-63
2022/09/05 09:03:00;;;;;;;5.65;4.55;;;;;;;26.20;100.00;167433.53;4992023;28;20026;-63
2022/09/05 09:05:53;;;;;;;5.10;3.65;;;;;;;26.49;100.00;167509.75;4990678;28;20525;-63
2022/09/05 09:08:32;;;;;;;5.57;3.67;;;;;;;26.69;100.00;167562.88;4992007;28;20577;-65
2022/09/05 09:11:26;;;;;;;5.65;3.58;;;;;;;27.07;100.00;167662.31;4990582;28;20490;-66
2022/09/05 09:14:17;;;;;;;6.88;3.83;;;;;;;27.31;100.00;167724.97;4990367;28;20470;-65
2022/09/05 09:17:06;;;;;;;3.33;2.97;;;;;;;27.57;100.00;167793.13;4991558;28;20038;-65
2022/09/05 09:19:46;;;;;;;13.95;3.88;;;;;;;27.69;100.00;167827.19;4990262;28;20039;-65
2022/09/05 09:22:39;;;;;;;6.25;3.92;;;;;;;27.65;100.00;167814.94;4991758;28;20026;-65
2022/09/05 09:25:10;;;;;;;6.05;2.90;;;;;;;27.76;100.00;167844.88;4990492;28;20053;-63
2022/09/05 09:27:41;;;;;;;8.63;3.38;;;;;;;28.08;100.00;167929.41;4991804;28;20033;-63
2022/09/05 09:30:07;;;;;;;6.53;2.40;;;;;;;28.43;100.00;168022.06;4989849;28;20065;-63
2022/09/05 09:32:45;;;;;;;5.97;2.85;;;;;;;28.73;100.00;168101.13;4991524;28;20027;-63
2022/09/05 09:35:43;;;;;;;4.47;2.60;;;;;;;29.26;100.00;168240.16;4989803;28;20038;-64
2022/09/05 09:38:21;;;;;;;4.80;3.00;;;;;;;29.46;100.00;168292.00;4991628;28;20088;-63
2022/09/05 09:41:14;;;;;;;4.68;2.10;;;;;;;29.33;100.00;168257.94;4989826;28;20117;-63
2022/09/05 09:44:07;;;;;;;6.32;1.88;;;;;;;29.29;100.00;168248.38;4989709;28;20018;-62
2022/09/05 09:46:44;;;;;;;9.13;2.58;;;;;;;29.10;100.00;168199.28;4991498;28;20105;-63
2022/09/05 09:49:31;;;;;;;4.18;2.22;;;;;;;28.99;100.00;168169.31;4990480;28;20030;-63
2022/09/05 09:52:26;;;;;;;2.33;2.05;;;;;;;28.98;100.00;168166.56;4993513;28;20037;-63
2022/09/05 09:55:28;;;;;;;3.53;2.30;;;;;;;28.96;100.00;168161.09;4994127;28;20045;-64
2022/09/05 09:58:06;;;;;;;4.55;1.75;;;;;;;28.99;100.00;168169.31;4995005;28;20066;-63
2022/09/05 10:01:13;;;;;;;2.97;2.65;;;;;;;29.13;100.00;168207.47;4993326;28;20088;-63
2022/09/05 10:03:56;;;;;;;3.47;2.10;;;;;;;29.10;98.83;168199.28;4993714;28;20026;-62
2022/09/05 10:06:42;;;;;;;2.30;2.10;;;;;;;29.10;97.60;168197.94;4994945;28;20498;-64
2022/09/05 10:09:28;;;;;;;1.88;1.35;;;;;;;29.36;97.40;168267.50;4993650;28;20045;-64
2022/09/05 10:12:22;;;;;;;4.10;1.65;;;;;;;29.63;93.09;168337.03;4994493;28;20037;-63
2022/09/05 10:15:01;;;;;;;1.90;1.50;;;;;;;29.87;91.88;168402.44;4991102;28;20169;-64
2022/09/05 10:17:35;;;;;;;6.65;2.13;;;;;;;-146.58;100.00;69501.63;4991475;28;20032;-64
2022/09/05 10:20:22;;;;;;;4.93;1.80;;;;;;;30.10;86.07;168461.13;4992779;28;20058;-64
2022/09/05 10:23:01;;;;;;;;;;;;;;;29.74;87.61;168368.38;4992113;28;20370;-64
2022/09/05 10:26:00;;;;;;;1.65;1.20;;;;;;;29.57;84.10;168322.00;4993133;28;19929;-63
2022/09/05 10:29:03;;;;;;;2.42;1.38;;;;;;;29.67;84.87;168349.31;4993854;28;20408;-64
2022/09/05 10:31:57;;;;;;;3.67;1.70;;;;;;;29.72;84.07;168361.53;4954858;28;20055;-64
2022/09/05 10:34:27;;;;;;;3.75;2.20;;;;;;;29.71;80.78;168360.19;4960761;28;20114;-63
2022/09/05 10:37:01;;;;;;;2.78;1.63;;;;;;;29.93;80.26;168417.50;4974812;28;20034;-64
2022/09/05 10:39:36;;;;;;;1.60;1.48;;;;;;;30.09;77.74;168458.41;4973873;28;20121;-63
2022/09/05 10:42:24;;;;;;;3.17;1.58;;;;;;;30.15;77.92;168474.75;4975247;28;20109;-64
2022/09/05 10:44:56;;;;;;;3.15;2.17;;;;;;;30.19;76.34;168485.69;4973320;28;20042;-64
2022/09/05 10:47:33;;;;;;;3.05;1.50;;;;;;;30.25;74.58;168500.66;4975072;28;20093;-64
2022/09/05 10:50:19;;;;;;;4.85;2.72;;;;;;;30.34;75.34;168525.22;4973871;28;20418;-64
2022/09/05 10:53:15;;;;;;;2.73;2.13;;;;;;;30.47;73.72;168559.31;4974721;28;20038;-64
2022/09/05 10:55:53;;;;;;;5.40;1.92;;;;;;;30.62;72.32;168598.91;4973503;28;20081;-64
2022/09/05 10:58:46;;;;;;;5.32;1.77;;;;;;;30.38;70.94;168537.50;4974837;28;20058;-64
2022/09/05 11:01:24;;;;;;;1.75;1.27;;;;;;;30.47;70.64;168560.66;4973751;28;20465;-64
2022/09/05 11:03:58;;;;;;;6.20;1.42;;;;;;;30.70;69.90;168622.13;4972644;28;20110;-63
2022/09/05 11:07:01;;;;;;;5.13;1.80;;;;;;;30.76;67.32;168635.75;4974435;28;20030;-63
2022/09/05 11:09:42;;;;;;;5.85;1.70;;;;;;;30.98;65.85;168695.75;4972494;28;20039;-63
2022/09/05 11:12:27;;;;;;;4.22;1.85;;;;;;;31.20;63.90;168753.09;4974532;28;20027;-64
2022/09/05 11:14:55;;;;;;;3.03;1.52;;;;;;;31.35;62.39;168791.31;4972742;28;20482;-64
2022/09/05 11:17:27;;;;;;;5.93;1.58;;;;;;;31.36;63.13;168794.03;4974572;28;20498;-64
2022/09/05 11:20:01;;;;;;;2.28;1.10;;;;;;;31.36;61.17;168794.03;4972722;28;20031;-64
2022/09/05 11:22:33;;;;;;;13.27;1.50;;;;;;;31.56;57.70;168848.59;4974669;28;20030;-64
2022/09/05 11:25:02;;;;;;;4.07;2.03;;;;;;;31.63;57.34;168867.69;4973036;28;20513;-64
2022/09/05 11:27:36;;;;;;;1.73;1.38;;;;;;;31.51;58.36;168834.97;4974005;28;20042;-63
2022/09/05 11:30:14;;;;;;;2.40;1.60;;;;;;;31.57;57.40;168851.34;4972953;28;20055;-63
2022/09/05 11:33:01;;;;;;;6.78;2.10;;;;;;;31.18;56.10;168747.63;4974141;28;20037;-64
2022/09/05 11:35:28;;;;;;;5.25;1.73;;;;;;;30.57;55.57;168586.63;4972693;28;20193;-64
2022/09/05 11:38:09;;;;;;;1.92;0.95;;;;;;;30.38;58.60;168537.50;4973979;28;20089;-64
2022/09/05 11:40:37;;;;;;;1.90;1.52;;;;;;;30.49;58.87;168564.78;4972613;28;20043;-64
2022/09/05 11:43:22;;;;;;;4.70;1.38;;;;;;;30.84;59.69;168658.91;4993138;28;20050;-64
2022/09/05 11:46:15;;;;;;;5.18;1.65;;;;;;;31.17;58.57;168744.91;4972323;28;20502;-64
2022/09/05 11:49:42;;;;;;;4.35;1.30;;;;;;;31.46;56.32;168821.34;4984262;28;20040;-63
2022/09/05 11:52:45;;;;;;;2.53;1.52;;;;;;;31.26;53.71;168768.13;4952039;29;20061;-64
2022/09/05 11:55:16;;;;;;;1.02;1.00;;;;;;;30.69;56.10;168619.38;4962816;28;20043;-63
2022/09/05 11:58:22;;;;;;;3.92;1.40;;;;;;;30.10;57.28;168461.13;5008377;28;20065;-64
2022/09/05 12:01:04;;;;;;;5.30;1.48;;;;;;;30.02;58.17;168440.66;5010789;28;20425;-64
2022/09/05 12:03:40;;;;;;;1.50;1.40;;;;;;;30.46;56.19;168556.59;5012174;28;20075;-64
2022/09/05 12:06:30;;;;;;;5.30;1.48;;;;;;;30.84;56.07;168657.56;5010673;28;20429;-64
2022/09/05 12:09:36;;;;;;;2.45;1.38;;;;;;;31.23;54.40;168761.31;5011471;28;20029;-64
2022/09/05 12:12:25;;;;;;;1.63;1.52;;;;;;;31.39;54.56;168802.25;5012558;28;20385;-64
2022/09/05 12:15:15;;;;;;;2.92;1.98;;;;;;;31.55;53.22;168845.88;5011227;28;20041;-64
2022/09/05 12:18:02;;;;;;;7.97;1.80;;;;;;;31.52;53.22;168837.69;5012524;28;20052;-64
2022/09/05 12:20:48;;;;;;;4.78;1.75;;;;;;;31.46;52.07;168821.34;5010429;28;20335;-64
2022/09/05 12:23:25;;;;;;;4.38;1.30;;;;;;;31.13;53.33;168734.00;5012517;28;20030;-66